createdAt,value
2018-08-13T00:00:10.468Z,99182.42
2018-08-13T00:05:15.315Z,99174.47
2018-08-13T00:10:20.050Z,99173.56
2018-08-13T00:15:24.856Z,99158.83
2018-08-13T00:20:29.643Z,99155.75
2018-08-13T00:25:34.524Z,99159.02
2018-08-13T00:30:39.704Z,99156.16
2018-08-13T00:35:44.878Z,99153.68
2018-08-13T00:40:49.770Z,99153.44
2018-08-13T00:45:54.627Z,99150.94
2018-08-13T00:50:59.445Z,99147.80
2018-08-13T00:56:04.263Z,99136.52
2018-08-13T01:01:09.077Z,99142.23
2018-08-13T01:06:14.003Z,99141.56
2018-08-13T01:11:19.120Z,99131.63
2018-08-13T01:16:23.931Z,99132.25
2018-08-13T01:21:28.725Z,99121.68
2018-08-13T01:26:33.506Z,99110.95
2018-08-13T01:31:38.339Z,99106.97
2018-08-13T01:36:43.317Z,99107.19
2018-08-13T01:41:48.113Z,99097.22
2018-08-13T01:46:53.010Z,99097.30
2018-08-13T01:51:57.889Z,99092.16
2018-08-13T01:57:02.630Z,99090.62
2018-08-13T02:02:07.455Z,99088.80
2018-08-13T02:07:12.561Z,99083.50
2018-08-13T02:12:17.422Z,99076.46
2018-08-13T02:17:22.236Z,99082.95
2018-08-13T02:22:27.053Z,99084.04
2018-08-13T02:27:31.938Z,99078.24
2018-08-13T02:32:36.826Z,99084.41
2018-08-13T02:37:41.780Z,99076.70
2018-08-13T02:42:46.828Z,99082.25
2018-08-13T02:47:51.611Z,99084.06
2018-08-13T02:52:56.336Z,99087.69
2018-08-13T02:58:01.067Z,99088.50
2018-08-13T03:03:07.081Z,99073.91
2018-08-13T03:08:11.893Z,99072.22
2018-08-13T03:13:16.731Z,99055.77
2018-08-13T03:18:21.589Z,99066.14
2018-08-13T03:23:26.583Z,99076.63
2018-08-13T03:28:31.498Z,99087.67
2018-08-13T03:33:36.337Z,99091.08
2018-08-13T03:38:41.036Z,99094.39
2018-08-13T03:43:46.138Z,99074.94
2018-08-13T03:48:50.841Z,99071.64
2018-08-13T03:53:55.865Z,99053.88
2018-08-13T03:59:00.745Z,99062.41
2018-08-13T04:04:05.643Z,99055.97
2018-08-13T04:09:10.635Z,99055.11
2018-08-13T04:14:15.354Z,99045.98
2018-08-13T04:19:19.973Z,99043.97
2018-08-13T04:24:24.853Z,99036.53
2018-08-13T04:29:29.696Z,99031.20
2018-08-13T04:34:35.446Z,99035.03
2018-08-13T04:39:40.307Z,99026.69
2018-08-13T04:44:45.092Z,99022.14
2018-08-13T04:49:49.819Z,99011.05
2018-08-13T04:54:54.548Z,99010.02
2018-08-13T04:59:59.207Z,98997.89
2018-08-13T05:05:04.209Z,98990.27
2018-08-13T05:10:11.040Z,98994.22
2018-08-13T05:15:15.868Z,98990.78
2018-08-13T05:20:20.874Z,98981.88
2018-08-13T05:25:25.690Z,98990.58
2018-08-13T05:30:30.551Z,98986.69
2018-08-13T05:35:35.549Z,98989.34
2018-08-13T05:40:40.335Z,98996.66
2018-08-13T05:45:45.133Z,98994.03
2018-08-13T05:50:50.158Z,98994.20
2018-08-13T05:55:54.934Z,98996.26
2018-08-13T06:00:59.772Z,98990.55
2018-08-13T06:06:04.502Z,98994.41
2018-08-13T06:11:09.406Z,98987.02
2018-08-13T06:16:14.164Z,98980.01
2018-08-13T06:21:18.917Z,98982.91
2018-08-13T06:26:23.824Z,98982.34
2018-08-13T06:31:28.569Z,98985.45
2018-08-13T06:36:33.323Z,98989.89
2018-08-13T06:41:38.116Z,98991.73
2018-08-13T06:46:42.870Z,98994.48
2018-08-13T06:51:47.793Z,98992.81
2018-08-13T06:56:52.498Z,99003.52
2018-08-13T07:01:57.280Z,99026.48
2018-08-13T07:07:02.315Z,99052.24
2018-08-13T07:12:07.226Z,99091.78
2018-08-13T07:17:12.037Z,99108.55
2018-08-13T07:22:16.960Z,99095.16
2018-08-13T07:27:21.885Z,99102.03
2018-08-13T07:32:26.616Z,99113.55
2018-08-13T07:37:31.402Z,99138.33
2018-08-13T07:42:36.236Z,99122.54
2018-08-13T07:47:41.205Z,99120.79
2018-08-13T07:52:45.993Z,99126.55
2018-08-13T07:57:51.068Z,99132.53
2018-08-13T08:02:55.954Z,99122.25
2018-08-13T08:08:00.794Z,99100.38
2018-08-13T08:13:05.592Z,99102.96
2018-08-13T08:18:10.435Z,99103.59
2018-08-13T08:23:15.339Z,99111.59
2018-08-13T08:28:20.304Z,99114.94
2018-08-13T08:33:25.340Z,99119.49
2018-08-13T08:38:30.157Z,99134.43
2018-08-13T08:43:35.055Z,99125.74
2018-08-13T08:48:39.805Z,99125.08
2018-08-13T08:53:44.503Z,99132.72
2018-08-13T08:58:49.261Z,99137.69
2018-08-13T09:03:54.053Z,99170.47
2018-08-13T09:08:58.866Z,99171.47
2018-08-13T09:14:03.813Z,99171.44
2018-08-13T09:19:25.219Z,99177.09
2018-08-13T09:24:46.852Z,99155.51
2018-08-13T09:30:08.282Z,99131.57
2018-08-13T09:35:24.867Z,99130.16
2018-08-13T09:40:31.066Z,99139.73
2018-08-13T09:45:36.027Z,99130.31
2018-08-13T09:50:40.853Z,99137.94
2018-08-13T09:55:45.639Z,99140.41
2018-08-13T10:00:55.447Z,99137.59
2018-08-13T10:06:00.156Z,99137.61
2018-08-13T10:11:05.010Z,99142.31
2018-08-13T10:16:09.924Z,99149.39
2018-08-13T10:21:14.676Z,99159.05
2018-08-13T10:26:19.384Z,99157.39
2018-08-13T10:31:24.140Z,99169.42
2018-08-13T10:36:28.877Z,99175.46
2018-08-13T10:41:33.577Z,99178.70
2018-08-13T10:46:38.714Z,99194.13
2018-08-13T10:51:43.477Z,99205.95
2018-08-13T10:56:48.304Z,99196.23
2018-08-13T11:01:53.180Z,99191.03
2018-08-13T11:06:57.914Z,99189.99
2018-08-13T11:12:02.836Z,99191.80
2018-08-13T11:17:07.714Z,99183.33
2018-08-13T11:22:12.592Z,99181.05
2018-08-13T11:27:17.372Z,99154.82
2018-08-13T11:32:22.184Z,99141.20
2018-08-13T11:37:27.018Z,99179.81
2018-08-13T11:42:31.806Z,99164.17
2018-08-13T11:47:37.062Z,99173.60
2018-08-13T11:52:43.153Z,99147.28
2018-08-13T11:57:49.363Z,99147.98
2018-08-13T12:02:54.227Z,99162.30
2018-08-13T12:07:58.995Z,99146.29
2018-08-13T12:13:03.772Z,99128.03
2018-08-13T12:18:08.560Z,99150.58
2018-08-13T12:23:13.234Z,99162.16
2018-08-13T12:28:17.955Z,99128.88
2018-08-13T12:33:22.839Z,99114.98
2018-08-13T12:38:27.726Z,99126.43
2018-08-13T12:43:32.559Z,99125.50
2018-08-13T12:48:37.242Z,99126.80
2018-08-13T12:53:42.143Z,99124.27
2018-08-13T12:58:46.866Z,99118.58
2018-08-13T13:03:51.721Z,99115.78
2018-08-13T13:08:56.498Z,99113.33
2018-08-13T13:14:01.242Z,99104.17
2018-08-13T13:19:06.024Z,99100.84
2018-08-13T13:24:10.832Z,99095.61
2018-08-13T13:29:15.741Z,99093.20
2018-08-13T13:34:20.511Z,99092.09
2018-08-13T13:39:25.257Z,99096.05
2018-08-13T13:44:30.053Z,99092.86
2018-08-13T13:49:35.572Z,99093.70
2018-08-13T13:54:40.364Z,99088.55
2018-08-13T13:59:45.348Z,99100.20
2018-08-13T14:04:50.308Z,99090.79
2018-08-13T14:09:55.152Z,99077.47
2018-08-13T14:15:00.092Z,99077.41
2018-08-13T14:20:07.091Z,99070.99
2018-08-13T14:25:13.581Z,99058.52
2018-08-13T14:30:22.198Z,99037.42
2018-08-13T14:35:26.967Z,99016.08
2018-08-13T14:40:31.764Z,99011.50
2018-08-13T14:45:36.817Z,99009.50
2018-08-13T14:50:41.645Z,98994.59
2018-08-13T14:55:46.689Z,98988.41
2018-08-13T15:00:51.444Z,98982.80
2018-08-13T15:05:56.276Z,98989.16
2018-08-13T15:11:01.052Z,98990.19
2018-08-13T15:16:05.846Z,98982.69
2018-08-13T15:21:10.686Z,98980.99
2018-08-13T15:26:15.626Z,98966.36
2018-08-13T15:31:20.523Z,98965.54
2018-08-13T15:36:25.392Z,98955.51
2018-08-13T15:41:30.161Z,98941.56
2018-08-13T15:46:34.967Z,98949.39
2018-08-13T15:51:39.819Z,98952.22
2018-08-13T15:56:44.967Z,98936.55
2018-08-13T16:01:49.894Z,98949.76
2018-08-13T16:06:54.627Z,98939.11
2018-08-13T16:11:59.420Z,98945.88
2018-08-13T16:17:04.327Z,98940.52
2018-08-13T16:22:09.166Z,98931.64
2018-08-13T16:27:14.117Z,98919.16
2018-08-13T16:32:19.026Z,98936.18
2018-08-13T16:37:23.917Z,98945.31
2018-08-13T16:42:28.670Z,98940.78
2018-08-13T16:47:34.477Z,98953.49
2018-08-13T16:52:39.259Z,98958.75
2018-08-13T16:57:44.017Z,98966.95
2018-08-13T17:02:48.932Z,98962.06
2018-08-13T17:07:54.121Z,98962.28
2018-08-13T17:12:59.713Z,98969.20
2018-08-13T17:18:04.820Z,98973.44
2018-08-13T17:23:10.022Z,98973.38
2018-08-13T17:28:14.909Z,98978.03
2018-08-13T17:33:19.764Z,98980.25
2018-08-13T17:38:24.569Z,98981.49
2018-08-13T17:43:29.374Z,98978.37
2018-08-13T17:48:34.257Z,98968.07
2018-08-13T17:53:39.245Z,98971.61
2018-08-13T17:58:44.216Z,98968.22
2018-08-13T18:03:49.189Z,98976.09
2018-08-13T18:08:54.290Z,98974.98
2018-08-13T18:13:59.159Z,98977.75
2018-08-13T18:19:04.065Z,98982.80
2018-08-13T18:24:09.245Z,98986.14
2018-08-13T18:29:14.165Z,98996.72
2018-08-13T18:34:18.890Z,98998.11
2018-08-13T18:39:23.621Z,98994.90
2018-08-13T18:44:28.533Z,99003.44
2018-08-13T18:49:33.445Z,99006.67
2018-08-13T18:54:38.396Z,99015.83
2018-08-13T18:59:43.267Z,99022.98
2018-08-13T19:04:48.197Z,99036.66
2018-08-13T19:09:53.055Z,99039.16
2018-08-13T19:14:57.919Z,99040.91
2018-08-13T19:20:02.690Z,99039.86
2018-08-13T19:25:13.158Z,99052.33
2018-08-13T19:30:19.304Z,99050.18
2018-08-13T19:35:24.424Z,99048.05
2018-08-13T19:40:29.359Z,99052.75
2018-08-13T19:45:34.449Z,99061.70
2018-08-13T19:50:39.546Z,99060.31
2018-08-13T19:55:44.302Z,99063.09
2018-08-13T20:00:49.152Z,99074.23
2018-08-13T20:05:54.128Z,99087.63
2018-08-13T20:10:59.401Z,99096.09
2018-08-13T20:16:04.712Z,99109.89
2018-08-13T20:21:09.571Z,99134.83
2018-08-13T20:26:14.506Z,99118.78
2018-08-13T20:31:19.459Z,99117.64
2018-08-13T20:36:24.385Z,99118.17
2018-08-13T20:41:29.330Z,99115.75
2018-08-13T20:46:34.218Z,99108.20
2018-08-13T20:51:39.368Z,99122.69
2018-08-13T20:56:44.300Z,99118.37
2018-08-13T21:01:49.151Z,99131.22
2018-08-13T21:06:53.938Z,99133.14
2018-08-13T21:11:58.849Z,99140.50
2018-08-13T21:17:03.650Z,99133.14
2018-08-13T21:22:08.754Z,99136.41
2018-08-13T21:27:13.621Z,99132.87
2018-08-13T21:32:18.581Z,99148.64
2018-08-13T21:37:23.399Z,99157.64
2018-08-13T21:42:28.126Z,99155.72
2018-08-13T21:47:32.999Z,99158.68
2018-08-13T21:52:37.871Z,99164.11
2018-08-13T21:57:42.720Z,99162.70
2018-08-13T22:02:47.793Z,99163.73
2018-08-13T22:07:52.607Z,99178.13
2018-08-13T22:12:57.579Z,99170.78
2018-08-13T22:18:07.439Z,99178.87
2018-08-13T22:23:12.150Z,99190.90
2018-08-13T22:28:18.889Z,99188.09
2018-08-13T22:33:23.845Z,99194.61
2018-08-13T22:38:28.569Z,99193.00
2018-08-13T22:43:33.325Z,99200.68
2018-08-13T22:48:38.133Z,99193.11
2018-08-13T22:53:42.992Z,99203.95
2018-08-13T22:58:47.961Z,99205.53
2018-08-13T23:03:52.796Z,99212.38
2018-08-13T23:08:57.558Z,99217.73
2018-08-13T23:14:02.399Z,99222.11
2018-08-13T23:19:07.201Z,99216.59
2018-08-13T23:24:11.873Z,99231.22
2018-08-13T23:29:16.768Z,99227.14
2018-08-13T23:34:21.546Z,99233.92
2018-08-13T23:39:26.224Z,99229.88
2018-08-13T23:44:31.015Z,99229.31
2018-08-13T23:49:35.771Z,99233.33
2018-08-13T23:54:40.704Z,99225.41
2018-08-13T23:59:45.561Z,99217.00
